Time;durP1;ratioP1;P1;durP2;ratioP2;P2;SDS_P1;SDS_P2;PMS_P1;PMS_P2;Temp;Humidity;BMP_temperature;BMP_pressure;BME280_temperature;BME280_humidity;BME280_pressure;Samples;Min_cycle;Max_cycle;Signal;HPM_P1;HPM_P2
2021/11/04 00:02:16;;;;;;;16.35;9.57;;;22.30;53.90;;;;;;5044770;28;20545;-61
2021/11/04 00:04:42;;;;;;;14.38;10.05;;;22.30;53.90;;;;;;5037539;28;20036;-59
2021/11/04 00:07:11;;;;;;;14.98;9.52;;;22.30;53.90;;;;;;5037982;28;20017;-58
2021/11/04 00:09:37;;;;;;;;;;;22.30;53.90;;;;;;5043553;28;20186;-56
2021/11/04 00:12:03;;;;;;;13.77;9.57;;;22.30;53.90;;;;;;5050809;28;20016;-60
2021/11/04 00:14:28;;;;;;;13.40;9.10;;;22.30;53.90;;;;;;5055456;28;20116;-60
2021/11/04 00:16:54;;;;;;;13.80;9.40;;;22.30;53.90;;;;;;5046756;28;20092;-60
2021/11/04 00:19:20;;;;;;;12.98;9.02;;;22.30;53.90;;;;;;5037928;28;20094;-59
2021/11/04 00:21:46;;;;;;;12.63;8.80;;;22.30;53.90;;;;;;5050104;28;20143;-59
2021/11/04 00:24:11;;;;;;;11.90;8.52;;;22.20;53.80;;;;;;5044720;28;20040;-59
2021/11/04 00:26:37;;;;;;;12.50;9.13;;;22.20;53.80;;;;;;5041206;28;20453;-59
2021/11/04 00:29:03;;;;;;;13.45;9.40;;;22.20;53.80;;;;;;5040689;28;20037;-59
2021/11/04 00:31:29;;;;;;;13.93;9.40;;;22.20;53.80;;;;;;5034636;28;20068;-59
2021/11/04 00:33:56;;;;;;;13.35;9.13;;;22.20;53.90;;;;;;5040045;28;20069;-58
2021/11/04 00:36:22;;;;;;;12.57;8.75;;;22.10;53.80;;;;;;5035637;28;20094;-60
2021/11/04 00:38:49;;;;;;;12.82;8.90;;;22.10;53.80;;;;;;5043931;28;20047;-59
2021/11/04 00:41:16;;;;;;;11.80;8.55;;;22.10;53.80;;;;;;5030593;28;20350;-59
2021/11/04 00:43:42;;;;;;;11.57;8.02;;;22.10;53.80;;;;;;5033332;28;20147;-60
2021/11/04 00:46:08;;;;;;;11.38;8.45;;;22.10;53.80;;;;;;5037870;28;20075;-58
2021/11/04 00:48:33;;;;;;;11.80;8.48;;;22.10;53.80;;;;;;5032231;28;20453;-60
2021/11/04 00:50:59;;;;;;;11.02;8.13;;;22.10;53.80;;;;;;5033211;28;20029;-60
2021/11/04 00:53:25;;;;;;;13.15;8.60;;;22.10;53.90;;;;;;5027882;28;20021;-60
2021/11/04 00:55:51;;;;;;;11.60;8.23;;;22.10;53.80;;;;;;5039255;28;20485;-59
2021/11/04 00:58:17;;;;;;;10.23;7.88;;;22.00;53.80;;;;;;5033295;28;20036;-59
2021/11/04 01:00:44;;;;;;;11.73;7.70;;;22.10;53.80;;;;;;5034519;28;20063;-59
2021/11/04 01:03:10;;;;;;;9.88;7.63;;;22.00;53.80;;;;;;5032567;28;20035;-56
2021/11/04 01:05:36;;;;;;;10.98;8.00;;;22.00;53.80;;;;;;5033610;28;20393;-59
2021/11/04 01:08:02;;;;;;;10.32;7.43;;;22.10;53.90;;;;;;5036837;28;20492;-59
2021/11/04 01:10:28;;;;;;;10.52;7.57;;;22.00;53.80;;;;;;5034488;28;20666;-57
2021/11/04 01:12:53;;;;;;;10.35;7.78;;;22.00;53.80;;;;;;5040337;28;20108;-59
2021/11/04 01:15:20;;;;;;;10.18;7.38;;;22.00;53.80;;;;;;5035350;28;20358;-59
2021/11/04 01:17:46;;;;;;;9.80;7.53;;;22.00;53.80;;;;;;5031715;28;20493;-59
2021/11/04 01:20:12;;;;;;;10.30;7.57;;;22.00;53.80;;;;;;5035520;28;20219;-59
2021/11/04 01:22:37;;;;;;;10.27;7.60;;;21.90;54.30;;;;;;5028252;28;20047;-60
2021/11/04 01:25:04;;;;;;;9.77;7.13;;;22.00;53.90;;;;;;5030183;28;20600;-60
2021/11/04 01:27:29;;;;;;;12.40;8.15;;;21.90;53.80;;;;;;5033176;28;20039;-59
2021/11/04 01:29:55;;;;;;;11.98;7.90;;;21.90;53.80;;;;;;5041682;28;20016;-60
2021/11/04 01:32:21;;;;;;;10.02;7.00;;;21.90;53.90;;;;;;5038967;28;20052;-60
2021/11/04 01:34:47;;;;;;;9.48;7.25;;;21.90;53.90;;;;;;5042631;28;21134;-60
2021/11/04 01:37:13;;;;;;;9.23;7.03;;;21.90;53.90;;;;;;5032641;28;20110;-60
2021/11/04 01:39:39;;;;;;;10.43;7.25;;;21.90;53.90;;;;;;5035909;28;20024;-57
2021/11/04 01:42:05;;;;;;;10.25;7.60;;;21.90;53.90;;;;;;5028632;28;20111;-58
2021/11/04 01:44:30;;;;;;;11.40;7.38;;;21.90;53.90;;;;;;5046222;28;20556;-59
2021/11/04 01:46:57;;;;;;;9.98;7.00;;;21.90;53.90;;;;;;5035683;28;20037;-59
2021/11/04 01:49:23;;;;;;;10.20;7.25;;;21.90;53.90;;;;;;5034875;28;20036;-61
2021/11/04 01:51:49;;;;;;;9.50;6.72;;;21.90;53.90;;;;;;5029687;28;20023;-58
2021/11/04 01:54:14;;;;;;;9.05;6.95;;;21.90;53.90;;;;;;5053343;28;20094;-60
2021/11/04 01:56:41;;;;;;;8.52;6.43;;;21.80;53.90;;;;;;5030443;28;20112;-57
2021/11/04 01:59:07;;;;;;;9.80;6.82;;;21.80;53.90;;;;;;5049709;28;20399;-60
2021/11/04 02:01:33;;;;;;;9.43;6.80;;;21.80;53.90;;;;;;5036581;28;20033;-60
2021/11/04 02:04:22;;;;;;;8.98;6.47;;;21.80;53.90;;;;;;5043087;28;20040;-60
2021/11/04 02:07:05;;;;;;;9.57;6.70;;;21.80;53.90;;;;;;5034417;28;20029;-59
2021/11/04 02:09:43;;;;;;;11.13;6.55;;;21.80;53.90;;;;;;5041734;28;20137;-59
2021/11/04 02:12:20;;;;;;;9.15;6.60;;;21.80;53.90;;;;;;5046287;28;20025;-59
2021/11/04 02:14:51;;;;;;;10.50;6.65;;;21.80;53.90;;;;;;5055895;28;20071;-61
2021/11/04 02:17:18;;;;;;;10.57;6.90;;;21.80;53.90;;;;;;5038184;28;20132;-61
2021/11/04 02:19:45;;;;;;;9.20;6.57;;;21.80;54.00;;;;;;5045468;28;20149;-58
2021/11/04 02:22:28;;;;;;;8.93;6.40;;;21.80;54.00;;;;;;5043134;28;20130;-61
2021/11/04 02:25:15;;;;;;;8.77;6.45;;;21.70;53.90;;;;;;5038616;28;20061;-59
2021/11/04 02:27:45;;;;;;;8.52;6.53;;;21.70;53.90;;;;;;5046075;28;20515;-61
2021/11/04 02:30:12;;;;;;;8.73;6.20;;;21.70;53.90;;;;;;5043574;28;20033;-61
2021/11/04 02:32:39;;;;;;;8.70;6.38;;;21.70;53.90;;;;;;5038320;28;20025;-60
2021/11/04 02:35:05;;;;;;;8.73;6.20;;;21.70;53.90;;;;;;5050152;28;20020;-61
2021/11/04 02:37:32;;;;;;;7.97;5.10;;;21.70;54.00;;;;;;5031433;28;20037;-60
2021/11/04 02:39:59;;;;;;;8.27;6.15;;;21.70;54.00;;;;;;5035490;28;20029;-60
2021/11/04 02:42:25;;;;;;;7.90;5.43;;;21.70;54.00;;;;;;5037095;28;20032;-60
2021/11/04 02:44:51;;;;;;;8.75;6.00;;;21.70;54.00;;;;;;5042589;28;20032;-59
2021/11/04 02:47:17;;;;;;;8.52;6.00;;;21.70;54.00;;;;;;5054617;28;20797;-59
2021/11/04 02:49:45;;;;;;;8.07;5.90;;;21.70;54.00;;;;;;5036547;28;20029;-60
2021/11/04 02:52:12;;;;;;;8.98;5.88;;;21.70;54.00;;;;;;5031642;28;20029;-62
2021/11/04 02:54:38;;;;;;;7.82;5.82;;;21.60;54.00;;;;;;5042651;28;20116;-61
2021/11/04 02:57:04;;;;;;;8.23;5.63;;;21.60;54.00;;;;;;5037564;28;20095;-59
2021/11/04 02:59:30;;;;;;;8.25;5.68;;;21.60;54.00;;;;;;5039714;28;20037;-60
2021/11/04 03:02:00;;;;;;;7.60;5.32;;;21.60;54.00;;;;;;5029506;28;20034;-61
2021/11/04 03:04:26;;;;;;;7.90;5.47;;;21.60;54.00;;;;;;5052285;28;20415;-59
2021/11/04 03:06:53;;;;;;;8.13;5.70;;;21.60;54.00;;;;;;5039347;28;20033;-61
2021/11/04 03:09:20;;;;;;;8.13;5.32;;;21.60;54.00;;;;;;5032135;28;20043;-60
2021/11/04 03:11:46;;;;;;;8.63;5.65;;;21.60;54.00;;;;;;5038027;28;20029;-61
2021/11/04 03:14:12;;;;;;;6.82;5.10;;;21.60;54.00;;;;;;5031735;28;20108;-60
2021/11/04 03:16:41;;;;;;;8.02;5.50;;;21.60;54.00;;;;;;5034178;28;20052;-60
2021/11/04 03:19:10;;;;;;;7.25;5.35;;;21.60;54.00;;;;;;5062203;28;20093;-61
2021/11/04 03:21:37;;;;;;;7.38;5.50;;;21.60;54.00;;;;;;5035061;28;20029;-60
2021/11/04 03:24:05;;;;;;;8.10;5.30;;;21.50;54.00;;;;;;5032674;28;20029;-61
2021/11/04 03:26:34;;;;;;;7.50;5.30;;;21.50;54.00;;;;;;5040375;28;20456;-61
2021/11/04 03:29:01;;;;;;;6.82;5.15;;;21.50;54.00;;;;;;5041997;28;20029;-61
2021/11/04 03:31:27;;;;;;;7.38;5.03;;;21.50;54.50;;;;;;5031459;28;20541;-59
2021/11/04 03:33:54;;;;;;;7.03;5.35;;;21.50;54.00;;;;;;5031620;28;20022;-57
2021/11/04 03:36:21;;;;;;;6.80;5.07;;;21.50;54.50;;;;;;5030748;28;20059;-61
2021/11/04 03:38:48;;;;;;;7.78;5.10;;;21.50;54.00;;;;;;5027577;28;20033;-61
2021/11/04 03:41:16;;;;;;;8.02;5.35;;;21.50;54.00;;;;;;5033367;28;20039;-61
2021/11/04 03:43:43;;;;;;;6.80;5.28;;;21.50;54.00;;;;;;5029387;28;20682;-61
2021/11/04 03:46:09;;;;;;;7.20;5.07;;;21.50;54.10;;;;;;5040433;28;20100;-59
2021/11/04 03:48:37;;;;;;;6.93;5.40;;;21.50;54.10;;;;;;5041749;28;20114;-60
2021/11/04 03:51:03;;;;;;;7.32;5.07;;;21.50;54.10;;;;;;5034479;28;20390;-59
2021/11/04 03:53:29;;;;;;;6.75;4.82;;;21.50;54.10;;;;;;5029824;28;20032;-61
2021/11/04 03:55:56;;;;;;;6.43;4.75;;;21.50;54.10;;;;;;5034681;28;20032;-61
2021/11/04 03:58:23;;;;;;;6.72;5.05;;;21.40;54.00;;;;;;5045799;28;20112;-59
2021/11/04 04:00:53;;;;;;;6.90;5.43;;;21.40;54.10;;;;;;5042626;28;20064;-61
2021/11/04 04:03:20;;;;;;;6.85;4.65;;;21.40;54.10;;;;;;5045128;28;20033;-61
2021/11/04 04:05:58;;;;;;;6.95;4.80;;;21.40;54.10;;;;;;5044961;28;20025;-59
2021/11/04 04:08:24;;;;;;;6.95;4.38;;;21.40;54.10;;;;;;5032361;28;20518;-61
2021/11/04 04:10:49;;;;;;;7.25;4.90;;;21.40;54.10;;;;;;5039257;28;20021;-60
2021/11/04 04:13:15;;;;;;;6.47;4.70;;;21.40;54.10;;;;;;5051661;28;20029;-60
2021/11/04 04:15:41;;;;;;;6.10;4.60;;;21.40;54.10;;;;;;5041229;28;20075;-61
2021/11/04 04:18:06;;;;;;;6.55;4.63;;;21.40;54.10;;;;;;5042612;28;20088;-61
2021/11/04 04:20:32;;;;;;;6.60;4.65;;;21.40;54.10;;;;;;5045953;28;20400;-61
2021/11/04 04:22:58;;;;;;;6.57;4.63;;;21.40;54.10;;;;;;5042085;28;20021;-60
2021/11/04 04:25:23;;;;;;;6.35;4.85;;;21.40;54.10;;;;;;5047749;28;20033;-60
2021/11/04 04:27:49;;;;;;;5.95;4.43;;;21.40;54.10;;;;;;5038574;28;20120;-61
2021/11/04 04:30:15;;;;;;;6.35;4.55;;;21.40;54.10;;;;;;5029604;28;20025;-59
2021/11/04 04:32:40;;;;;;;6.05;4.38;;;21.40;54.10;;;;;;5041014;28;20101;-61
2021/11/04 04:35:06;;;;;;;6.78;4.70;;;21.40;54.10;;;;;;5032756;28;20127;-60
2021/11/04 04:37:32;;;;;;;6.20;4.53;;;21.40;54.10;;;;;;5043499;28;20032;-61
2021/11/04 04:39:58;;;;;;;5.82;4.07;;;21.40;54.10;;;;;;5037238;28;20109;-60
2021/11/04 04:42:23;;;;;;;6.60;4.72;;;21.30;54.10;;;;;;5036698;28;20484;-60
2021/11/04 04:44:51;;;;;;;6.45;4.45;;;21.30;54.10;;;;;;5044611;28;20167;-60
2021/11/04 04:47:17;;;;;;;6.93;4.55;;;21.30;54.10;;;;;;5029880;28;20488;-60
2021/11/04 04:49:42;;;;;;;5.82;4.30;;;21.30;54.10;;;;;;5042792;28;20099;-61
2021/11/04 04:52:08;;;;;;;6.25;4.50;;;21.40;54.10;;;;;;5028619;28;20052;-59
2021/11/04 04:54:34;;;;;;;5.90;4.20;;;21.30;54.10;;;;;;5031381;28;20108;-59
2021/11/04 04:56:59;;;;;;;5.90;4.20;;;21.30;54.10;;;;;;5031771;28;20083;-61
2021/11/04 04:59:25;;;;;;;5.72;3.90;;;21.30;54.10;;;;;;5044115;28;20517;-60
2021/11/04 05:01:50;;;;;;;5.75;4.13;;;21.30;54.10;;;;;;5045576;28;20408;-60
2021/11/04 05:04:16;;;;;;;5.55;3.95;;;21.30;54.20;;;;;;5052243;28;20021;-60
2021/11/04 05:06:42;;;;;;;5.82;4.05;;;21.30;54.20;;;;;;5033989;28;20041;-59
2021/11/04 05:09:07;;;;;;;5.85;4.10;;;21.30;54.20;;;;;;5043609;28;20034;-60
2021/11/04 05:11:33;;;;;;;5.22;4.03;;;21.30;54.20;;;;;;5037710;28;20052;-59
2021/11/04 05:13:58;;;;;;;5.68;4.30;;;21.30;54.20;;;;;;5048178;28;20040;-61
2021/11/04 05:16:24;;;;;;;5.53;4.20;;;21.30;54.30;;;;;;5032829;28;20686;-58
2021/11/04 05:18:50;;;;;;;5.95;4.22;;;21.30;54.30;;;;;;5031544;28;20442;-60
2021/11/04 05:21:15;;;;;;;6.43;4.65;;;21.30;54.20;;;;;;5039957;28;20064;-59
2021/11/04 05:23:41;;;;;;;6.25;3.92;;;21.30;54.40;;;;;;5036056;28;20043;-61
2021/11/04 05:26:07;;;;;;;5.47;3.90;;;21.20;54.20;;;;;;5030163;28;20037;-60
2021/11/04 05:28:32;;;;;;;5.55;4.03;;;21.30;54.30;;;;;;5030557;28;20033;-61
2021/11/04 05:31:00;;;;;;;4.90;3.53;;;21.30;54.30;;;;;;5033440;28;20483;-60
2021/11/04 05:33:26;;;;;;;5.35;3.88;;;21.20;54.30;;;;;;5057279;28;20148;-60
2021/11/04 05:35:52;;;;;;;5.18;3.80;;;21.20;54.30;;;;;;5033311;28;20104;-61
2021/11/04 05:38:17;;;;;;;5.50;3.63;;;21.20;54.30;;;;;;5031274;28;20130;-61
2021/11/04 05:40:43;;;;;;;5.60;4.03;;;21.20;54.30;;;;;;5027939;28;20037;-59
2021/11/04 05:43:08;;;;;;;4.93;3.47;;;21.20;54.30;;;;;;5032228;28;20120;-61
2021/11/04 05:45:34;;;;;;;5.68;3.78;;;21.20;54.30;;;;;;5037333;28;20028;-60
2021/11/04 05:48:00;;;;;;;4.82;3.38;;;21.20;54.30;;;;;;5046204;28;20064;-59
2021/11/04 05:50:25;;;;;;;4.80;3.50;;;21.20;54.40;;;;;;5036467;28;20032;-60
2021/11/04 05:52:52;;;;;;;5.30;3.63;;;21.20;54.40;;;;;;5043129;28;20823;-61
2021/11/04 05:55:18;;;;;;;5.50;3.70;;;21.20;54.40;;;;;;5035679;28;20047;-61
2021/11/04 05:57:43;;;;;;;5.13;3.55;;;21.20;54.30;;;;;;5044190;28;20694;-56
2021/11/04 06:00:09;;;;;;;4.90;3.67;;;21.20;54.40;;;;;;5042622;28;20087;-61
2021/11/04 06:02:35;;;;;;;4.85;3.38;;;21.20;54.40;;;;;;5042085;28;20033;-61
2021/11/04 06:05:00;;;;;;;6.15;4.20;;;21.20;54.40;;;;;;5031062;28;20716;-60
2021/11/04 06:07:28;;;;;;;4.88;3.42;;;21.20;54.40;;;;;;5040431;28;20028;-59
2021/11/04 06:09:53;;;;;;;5.03;3.55;;;21.20;54.40;;;;;;5042923;28;20060;-59
2021/11/04 06:12:19;;;;;;;5.30;3.58;;;21.20;54.40;;;;;;5032485;28;20037;-60
2021/11/04 06:14:45;;;;;;;5.22;3.90;;;21.20;54.40;;;;;;5042750;28;20089;-61
2021/11/04 06:17:10;;;;;;;5.00;3.53;;;21.20;54.40;;;;;;5038381;28;20045;-60
2021/11/04 06:19:36;;;;;;;4.53;3.35;;;21.10;54.30;;;;;;5036491;28;20061;-60
2021/11/04 06:22:03;;;;;;;4.68;3.50;;;21.10;54.40;;;;;;5037170;28;20040;-59
2021/11/04 06:24:28;;;;;;;4.60;3.40;;;21.10;54.40;;;;;;5036254;28;20029;-60
2021/11/04 06:26:54;;;;;;;5.35;3.80;;;21.10;54.40;;;;;;5039590;28;20051;-60
2021/11/04 06:29:20;;;;;;;4.82;3.50;;;21.10;54.40;;;;;;5038270;28;20025;-59
2021/11/04 06:31:45;;;;;;;4.45;3.25;;;21.10;54.40;;;;;;5035367;28;20440;-59
2021/11/04 06:34:11;;;;;;;5.03;3.35;;;21.10;54.40;;;;;;5034313;28;20036;-59
2021/11/04 06:36:37;;;;;;;4.50;3.30;;;21.10;54.40;;;;;;5033685;28;20029;-60
2021/11/04 06:39:03;;;;;;;4.53;3.17;;;21.10;54.50;;;;;;5037619;28;20033;-61
2021/11/04 06:41:28;;;;;;;4.38;3.08;;;21.10;54.50;;;;;;5036565;28;20045;-61
2021/11/04 06:43:54;;;;;;;4.15;3.15;;;21.10;54.50;;;;;;5034528;28;20056;-60
2021/11/04 06:46:28;;;;;;;4.35;3.17;;;21.10;54.50;;;;;;5036971;28;20417;-59
2021/11/04 06:49:01;;;;;;;4.15;2.95;;;21.10;54.50;;;;;;5032535;28;20052;-59
2021/11/04 06:51:29;;;;;;;4.32;3.13;;;21.10;54.50;;;;;;5032754;28;20033;-60
2021/11/04 06:53:58;;;;;;;4.55;3.13;;;21.10;54.50;;;;;;5033120;28;20021;-61
2021/11/04 06:56:24;;;;;;;4.57;3.13;;;21.10;54.50;;;;;;5036581;28;20028;-61
2021/11/04 06:58:53;;;;;;;4.35;3.10;;;21.10;54.50;;;;;;5034774;28;20477;-60
2021/11/04 07:01:21;;;;;;;4.32;3.05;;;21.10;54.50;;;;;;5033274;28;20055;-59
2021/11/04 07:04:25;;;;;;;3.85;2.92;;;21.10;54.50;;;;;;5040470;28;20052;-60
2021/11/04 07:07:00;;;;;;;4.13;3.20;;;21.10;54.50;;;;;;4993665;28;20037;-60
2021/11/04 07:09:28;;;;;;;4.57;3.05;;;21.10;54.50;;;;;;5026861;28;20554;-60
2021/11/04 07:11:56;;;;;;;3.95;2.88;;;21.10;54.50;;;;;;5033557;28;20104;-56
2021/11/04 07:14:27;;;;;;;3.63;2.85;;;21.10;54.50;;;;;;5036989;28;20626;-61
2021/11/04 07:16:53;;;;;;;4.13;2.90;;;21.10;54.50;;;;;;5044640;28;20025;-61
2021/11/04 07:19:20;;;;;;;4.03;2.78;;;21.10;54.50;;;;;;5032172;28;20026;-61
2021/11/04 07:22:00;;;;;;;4.47;3.00;;;21.10;54.50;;;;;;5031199;28;20860;-61
2021/11/04 07:24:46;;;;;;;4.13;2.90;;;21.10;54.50;;;;;;5050050;28;20024;-59
2021/11/04 07:27:25;;;;;;;4.20;2.78;;;21.10;54.50;;;;;;5052872;28;20032;-60
2021/11/04 07:29:54;;;;;;;;;;;21.10;54.50;;;;;;5034972;28;20048;-57
2021/11/04 07:32:21;;;;;;;4.43;2.50;;;21.00;54.50;;;;;;5035357;28;20443;-60
2021/11/04 07:34:50;;;;;;;3.85;2.70;;;21.10;54.50;;;;;;5036410;28;20103;-59
2021/11/04 07:37:16;;;;;;;4.10;2.78;;;21.10;54.50;;;;;;5029948;28;20639;-60
2021/11/04 07:39:43;;;;;;;3.72;2.85;;;21.10;54.50;;;;;;5031623;28;20043;-58
2021/11/04 07:42:09;;;;;;;3.97;2.50;;;21.00;54.50;;;;;;5028952;28;20061;-60
2021/11/04 07:44:36;;;;;;;3.95;2.67;;;21.00;54.50;;;;;;5045279;28;20024;-58
2021/11/04 07:47:05;;;;;;;3.78;2.60;;;21.10;54.50;;;;;;5032513;28;20114;-61
2021/11/04 07:49:31;;;;;;;3.78;2.70;;;21.00;54.50;;;;;;5040681;28;20092;-60
2021/11/04 07:52:00;;;;;;;3.80;2.75;;;21.10;54.60;;;;;;5030846;28;20528;-59
2021/11/04 07:54:29;;;;;;;4.28;2.60;;;21.10;54.60;;;;;;5031973;28;20033;-60
2021/11/04 07:56:54;;;;;;;3.92;2.70;;;21.10;54.50;;;;;;5036964;28;20033;-60
2021/11/04 07:59:20;;;;;;;4.07;2.83;;;21.00;54.50;;;;;;5042371;28;20028;-58
2021/11/04 08:01:46;;;;;;;3.33;2.55;;;21.00;54.50;;;;;;5047995;28;20037;-60
2021/11/04 08:04:11;;;;;;;4.35;2.58;;;21.00;54.60;;;;;;5039082;28;20056;-57
2021/11/04 08:06:37;;;;;;;4.18;2.50;;;21.00;54.60;;;;;;5035582;28;20025;-59
2021/11/04 08:09:03;;;;;;;3.97;2.80;;;21.00;54.60;;;;;;5051077;28;20026;-60
2021/11/04 08:11:29;;;;;;;3.83;2.70;;;21.00;54.60;;;;;;5030810;28;20038;-59
2021/11/04 08:13:55;;;;;;;3.45;2.65;;;21.00;54.60;;;;;;5037200;28;20058;-60
2021/11/04 08:16:21;;;;;;;3.78;2.53;;;21.00;54.70;;;;;;5044010;28;20038;-57
2021/11/04 08:18:47;;;;;;;3.58;2.42;;;21.00;54.60;;;;;;5036722;28;20400;-60
2021/11/04 08:21:13;;;;;;;3.72;2.60;;;21.00;54.70;;;;;;5037796;28;20033;-60
2021/11/04 08:23:39;;;;;;;4.10;2.75;;;21.00;54.70;;;;;;5036076;28;20037;-59
2021/11/04 08:26:05;;;;;;;3.92;2.60;;;21.00;54.70;;;;;;5044568;28;20107;-58
2021/11/04 08:28:31;;;;;;;3.70;2.33;;;21.00;54.70;;;;;;5037478;28;20040;-58
2021/11/04 08:30:57;;;;;;;3.70;2.30;;;21.00;54.80;;;;;;5035725;28;20409;-58
2021/11/04 08:33:23;;;;;;;3.55;2.50;;;21.00;54.70;;;;;;5034171;28;20426;-59
2021/11/04 08:35:49;;;;;;;4.00;2.55;;;21.00;54.70;;;;;;5032554;28;20040;-60
2021/11/04 08:38:16;;;;;;;4.30;2.20;;;21.00;54.70;;;;;;5035579;28;20035;-59
2021/11/04 08:40:41;;;;;;;3.88;2.50;;;21.00;54.70;;;;;;5036355;28;20617;-57
2021/11/04 08:43:07;;;;;;;3.30;2.30;;;21.00;54.80;;;;;;5031714;28;20029;-60
2021/11/04 08:45:33;;;;;;;3.40;2.20;;;21.00;54.80;;;;;;5036061;28;20157;-59
2021/11/04 08:47:59;;;;;;;4.57;2.55;;;21.00;54.80;;;;;;5040920;28;20227;-59
2021/11/04 08:50:25;;;;;;;3.40;2.50;;;21.00;54.80;;;;;;5028932;28;20029;-60
2021/11/04 08:52:52;;;;;;;3.72;2.40;;;21.00;54.80;;;;;;5037173;28;20154;-58
2021/11/04 08:55:19;;;;;;;3.88;2.25;;;21.00;54.80;;;;;;5035206;28;20037;-59
2021/11/04 08:57:44;;;;;;;3.45;2.40;;;21.00;54.80;;;;;;5036971;28;20167;-59
2021/11/04 09:00:11;;;;;;;3.85;2.35;;;21.00;54.90;;;;;;5032197;28;20104;-58
2021/11/04 09:02:37;;;;;;;3.53;2.40;;;21.00;54.90;;;;;;5032082;28;20074;-60
2021/11/04 09:05:07;;;;;;;4.03;2.30;;;21.00;54.90;;;;;;5036924;28;20025;-59
2021/11/04 09:07:34;;;;;;;3.53;2.33;;;21.00;54.90;;;;;;5035521;28;20029;-59
2021/11/04 09:10:01;;;;;;;3.30;2.10;;;21.00;54.90;;;;;;5030548;28;20495;-59
2021/11/04 09:12:27;;;;;;;3.55;2.15;;;21.00;54.90;;;;;;5040254;28;20025;-60
2021/11/04 09:14:52;;;;;;;3.33;2.08;;;21.00;55.00;;;;;;5032096;28;20021;-60
2021/11/04 09:17:18;;;;;;;3.45;2.20;;;21.00;55.00;;;;;;5032858;28;20040;-59
2021/11/04 09:19:45;;;;;;;4.05;2.05;;;21.00;55.00;;;;;;5037904;28;20094;-60
2021/11/04 09:22:11;;;;;;;3.25;2.10;;;21.00;55.00;;;;;;5045946;28;20035;-59
2021/11/04 09:24:37;;;;;;;3.00;2.10;;;21.00;55.00;;;;;;5038643;28;20029;-60
2021/11/04 09:27:04;;;;;;;3.65;2.30;;;21.00;55.60;;;;;;5033527;28;20083;-60
2021/11/04 09:29:33;;;;;;;3.47;2.08;;;20.90;55.10;;;;;;5036230;28;20017;-59
2021/11/04 09:32:00;;;;;;;3.67;2.33;;;21.00;55.00;;;;;;5034419;28;20045;-59
2021/11/04 09:34:28;;;;;;;3.00;2.10;;;21.00;55.10;;;;;;5040017;28;20040;-59
2021/11/04 09:36:54;;;;;;;3.70;2.27;;;20.90;55.00;;;;;;5036384;28;20063;-58
2021/11/04 09:39:19;;;;;;;4.15;2.15;;;20.90;55.00;;;;;;5041058;28;20036;-58
2021/11/04 09:41:45;;;;;;;4.38;2.47;;;20.90;55.10;;;;;;5033218;28;20153;-60
2021/11/04 09:44:11;;;;;;;4.07;2.00;;;20.90;55.10;;;;;;5034852;28;20056;-55
2021/11/04 09:46:37;;;;;;;4.22;2.00;;;21.00;55.10;;;;;;5036637;28;20025;-57
2021/11/04 09:49:04;;;;;;;3.17;2.10;;;20.90;55.10;;;;;;5044918;28;20025;-60
2021/11/04 09:51:29;;;;;;;3.50;2.05;;;20.90;55.10;;;;;;5034581;28;20485;-59
2021/11/04 09:53:55;;;;;;;3.42;2.22;;;20.90;55.10;;;;;;5034156;28;20022;-59
2021/11/04 09:56:21;;;;;;;4.13;2.20;;;20.90;55.10;;;;;;5035005;28;20195;-57
2021/11/04 09:58:47;;;;;;;3.78;2.10;;;20.90;55.10;;;;;;5045858;28;20037;-59
2021/11/04 10:01:25;;;;;;;3.33;1.90;;;20.90;55.10;;;;;;5042704;28;20032;-60
2021/11/04 10:03:54;;;;;;;3.72;2.38;;;20.90;55.10;;;;;;5039890;28;20074;-56
2021/11/04 10:06:27;;;;;;;3.38;2.00;;;20.90;55.10;;;;;;5038161;28;20119;-58
2021/11/04 10:08:54;;;;;;;3.20;2.03;;;20.90;55.10;;;;;;5043934;28;20143;-59
2021/11/04 10:11:22;;;;;;;3.30;1.95;;;20.90;55.10;;;;;;5043338;28;20021;-59
2021/11/04 10:13:49;;;;;;;3.00;2.10;;;20.90;55.20;;;;;;5045364;28;20438;-59
2021/11/04 10:16:16;;;;;;;3.00;1.80;;;20.90;55.10;;;;;;5036795;28;20496;-59
2021/11/04 10:18:48;;;;;;;2.97;1.85;;;20.90;55.10;;;;;;5042473;28;20040;-59
2021/11/04 10:21:14;;;;;;;3.03;1.85;;;20.90;55.20;;;;;;5032000;28;20120;-56
2021/11/04 10:23:45;;;;;;;3.50;1.88;;;20.90;55.20;;;;;;5038823;28;20031;-59
2021/11/04 10:26:17;;;;;;;2.90;2.00;;;20.90;55.60;;;;;;5038439;28;20036;-59
2021/11/04 10:28:48;;;;;;;2.72;1.80;;;20.90;55.20;;;;;;5042965;28;20036;-57
2021/11/04 10:31:16;;;;;;;2.50;1.85;;;20.90;55.20;;;;;;5038494;28;20045;-60
2021/11/04 10:33:44;;;;;;;3.90;2.08;;;20.90;55.20;;;;;;5031411;28;20084;-59
2021/11/04 10:36:21;;;;;;;2.60;1.80;;;20.90;55.70;;;;;;5033095;28;20049;-58
2021/11/04 10:38:50;;;;;;;3.22;1.75;;;20.90;55.20;;;;;;5033229;28;20049;-59
2021/11/04 10:41:20;;;;;;;2.85;1.77;;;20.90;55.30;;;;;;5036212;28;20492;-55
2021/11/04 10:43:52;;;;;;;3.97;1.70;;;20.90;55.30;;;;;;5030776;28;20052;-56
2021/11/04 10:46:18;;;;;;;3.00;1.90;;;20.90;55.30;;;;;;5042800;28;20065;-59
2021/11/04 10:48:46;;;;;;;4.00;1.80;;;20.90;55.50;;;;;;5026030;28;20162;-60
2021/11/04 10:51:13;;;;;;;4.13;2.17;;;20.90;55.70;;;;;;5026522;28;20052;-59
2021/11/04 10:53:39;;;;;;;3.00;1.92;;;20.90;55.80;;;;;;5029478;28;20038;-59
2021/11/04 10:56:20;;;;;;;3.25;2.00;;;20.90;55.90;;;;;;5029246;28;20039;-60
2021/11/04 10:58:56;;;;;;;3.00;1.90;;;20.90;55.90;;;;;;5030159;28;20060;-60
2021/11/04 11:01:30;;;;;;;5.10;2.30;;;21.00;55.80;;;;;;5030939;28;20106;-57
2021/11/04 11:04:01;;;;;;;2.78;1.88;;;21.00;55.80;;;;;;5035719;28;20056;-60
2021/11/04 11:06:29;;;;;;;3.30;1.60;;;21.00;55.70;;;;;;5029996;28;20099;-60
2021/11/04 11:08:58;;;;;;;2.58;1.65;;;21.00;55.60;;;;;;5026929;28;20025;-60
2021/11/04 11:11:24;;;;;;;3.33;1.80;;;21.00;55.60;;;;;;5026897;28;20025;-60
2021/11/04 11:13:50;;;;;;;3.50;1.88;;;21.00;55.50;;;;;;5037344;28;20043;-60
2021/11/04 11:16:17;;;;;;;2.70;1.58;;;21.10;55.50;;;;;;5031800;28;20025;-59
2021/11/04 11:18:43;;;;;;;2.90;1.75;;;21.10;55.40;;;;;;5028227;28;22221;-60
2021/11/04 11:21:10;;;;;;;2.80;1.60;;;21.10;55.40;;;;;;5038476;28;20667;-60
2021/11/04 11:23:37;;;;;;;2.65;1.77;;;21.10;55.40;;;;;;5029111;28;20602;-60
2021/11/04 11:26:04;;;;;;;3.03;1.70;;;21.10;55.40;;;;;;5035269;28;20033;-59
2021/11/04 11:28:32;;;;;;;2.85;1.90;;;21.10;55.40;;;;;;5031074;28;20017;-60
2021/11/04 11:31:11;;;;;;;2.80;1.88;;;21.10;55.40;;;;;;5032000;28;20124;-59
2021/11/04 11:33:38;;;;;;;2.40;1.48;;;21.20;55.40;;;;;;5029919;28;20043;-59
2021/11/04 11:36:12;;;;;;;2.75;1.58;;;21.20;55.40;;;;;;5025273;28;20040;-59
2021/11/04 11:38:57;;;;;;;3.10;1.75;;;21.20;55.40;;;;;;5025401;28;20152;-59
2021/11/04 11:41:24;;;;;;;2.65;1.60;;;21.10;55.30;;;;;;5024419;28;20066;-59
2021/11/04 11:43:53;;;;;;;2.42;1.65;;;21.10;55.30;;;;;;5028798;28;20477;-59
2021/11/04 11:46:19;;;;;;;3.03;1.55;;;21.20;55.30;;;;;;5029966;28;20033;-59
2021/11/04 11:49:04;;;;;;;2.58;1.50;;;21.10;55.30;;;;;;5030240;28;20037;-60
2021/11/04 11:51:53;;;;;;;2.25;1.50;;;21.20;55.30;;;;;;5027421;28;20428;-60
2021/11/04 11:54:19;;;;;;;2.60;1.60;;;21.20;55.30;;;;;;5027864;28;20031;-60
2021/11/04 11:57:11;;;;;;;2.60;1.55;;;21.20;55.30;;;;;;5032145;28;20109;-59
2021/11/04 11:59:59;;;;;;;2.60;1.50;;;21.20;55.30;;;;;;5031345;28;20037;-59
2021/11/04 12:02:41;;;;;;;3.42;1.77;;;21.20;55.30;;;;;;5039648;28;20036;-60
2021/11/04 12:05:22;;;;;;;2.60;1.70;;;21.20;55.30;;;;;;5032737;28;20047;-60
2021/11/04 12:07:55;;;;;;;2.58;1.55;;;21.20;55.30;;;;;;5041649;28;20448;-60
2021/11/04 12:10:30;;;;;;;2.40;1.40;;;21.20;55.20;;;;;;5041171;28;20400;-60
2021/11/04 12:12:57;;;;;;;3.20;1.67;;;21.20;55.20;;;;;;5038458;28;20025;-59
2021/11/04 12:15:24;;;;;;;2.70;1.70;;;21.20;55.20;;;;;;5034102;28;20063;-60
2021/11/04 12:18:15;;;;;;;2.70;1.60;;;21.20;55.30;;;;;;5035656;28;20052;-58
2021/11/04 12:20:55;;;;;;;3.75;1.85;;;21.20;55.30;;;;;;5038220;28;20763;-60
2021/11/04 12:23:29;;;;;;;3.85;1.90;;;21.20;55.30;;;;;;5043801;28;20029;-60
2021/11/04 12:25:54;;;;;;;4.93;2.08;;;21.20;55.30;;;;;;5033976;28;20113;-60
2021/11/04 12:28:21;;;;;;;4.45;2.20;;;21.20;55.30;;;;;;5036654;28;20549;-60
2021/11/04 12:30:47;;;;;;;4.53;2.42;;;21.20;55.30;;;;;;5027903;28;20059;-60
2021/11/04 12:33:14;;;;;;;3.67;1.90;;;21.20;55.30;;;;;;5030955;28;20047;-60
2021/11/04 12:35:48;;;;;;;4.05;2.10;;;21.20;55.30;;;;;;5027164;28;20037;-59
2021/11/04 12:38:19;;;;;;;3.63;1.77;;;21.20;55.30;;;;;;5028127;28;20029;-60
2021/11/04 12:40:46;;;;;;;4.63;2.10;;;21.20;55.30;;;;;;5031640;28;20416;-60
2021/11/04 12:43:13;;;;;;;4.47;2.10;;;21.30;55.30;;;;;;5028691;28;20033;-60
2021/11/04 12:45:47;;;;;;;4.22;2.33;;;21.20;55.30;;;;;;5028882;28;20040;-57
2021/11/04 12:48:13;;;;;;;4.88;2.30;;;21.20;55.30;;;;;;5027633;28;20060;-60
2021/11/04 12:50:40;;;;;;;5.22;2.20;;;21.20;55.30;;;;;;5029227;28;20129;-60